Time;durP1;ratioP1;P1;durP2;ratioP2;P2;SDS_P1;SDS_P2;PMS_P1;PMS_P2;Temp;Humidity;BMP_temperature;BMP_pressure;BME280_temperature;BME280_humidity;BME280_pressure;Samples;Min_cycle;Max_cycle;Signal;HPM_P1;HPM_P2
2023/12/07 00:00:33;;;;;;;13.93;10.73;;;1.70;99.90;;;;;;5060706;28;20039;-37
2023/12/07 00:02:59;;;;;;;14.75;11.43;;;1.60;99.90;;;;;;5059266;28;20016;-37
2023/12/07 00:05:25;;;;;;;15.32;11.98;;;1.60;99.90;;;;;;5060753;28;20066;-37
2023/12/07 00:07:51;;;;;;;15.60;11.55;;;1.60;99.90;;;;;;5059987;28;20025;-36
2023/12/07 00:10:16;;;;;;;18.17;12.38;;;1.60;99.90;;;;;;5059847;28;20048;-36
2023/12/07 00:12:42;;;;;;;17.50;13.52;;;1.50;99.90;;;;;;5059841;28;20017;-37
2023/12/07 00:15:08;;;;;;;17.17;12.48;;;1.50;99.90;;;;;;5060165;28;20567;-37
2023/12/07 00:17:40;;;;;;;14.88;12.10;;;1.50;99.90;;;;;;5059806;28;20027;-36
2023/12/07 00:20:06;;;;;;;16.00;11.65;;;1.50;99.90;;;;;;5060096;28;20681;-37
2023/12/07 00:22:31;;;;;;;18.63;12.48;;;1.50;99.90;;;;;;5060532;28;20032;-38
2023/12/07 00:24:57;;;;;;;17.85;11.85;;;1.50;99.90;;;;;;5058873;28;20767;-49
2023/12/07 00:27:23;;;;;;;16.52;11.18;;;1.50;99.90;;;;;;5062246;28;20027;-36
2023/12/07 00:29:48;;;;;;;15.63;10.45;;;1.50;99.90;;;;;;5052942;28;20066;-37
2023/12/07 00:32:14;;;;;;;15.15;11.43;;;1.50;99.90;;;;;;5062642;28;20036;-40
2023/12/07 00:34:39;;;;;;;15.13;11.45;;;1.40;99.90;;;;;;5064033;28;20028;-37
2023/12/07 00:37:05;;;;;;;13.27;10.75;;;1.50;99.90;;;;;;5063072;28;20025;-38
2023/12/07 00:39:33;;;;;;;14.50;11.13;;;1.40;99.90;;;;;;5063929;28;20019;-39
2023/12/07 00:41:59;;;;;;;15.35;10.77;;;1.40;99.90;;;;;;5063836;28;20033;-37
2023/12/07 00:44:24;;;;;;;15.18;9.88;;;1.40;99.90;;;;;;5063026;28;20021;-37
2023/12/07 00:46:50;;;;;;;12.02;9.90;;;1.40;99.90;;;;;;5063740;28;20129;-37
2023/12/07 00:49:16;;;;;;;13.40;10.82;;;1.30;99.90;;;;;;5063768;28;20053;-44
2023/12/07 00:51:41;;;;;;;13.85;10.45;;;1.40;99.90;;;;;;5064244;28;20043;-36
2023/12/07 00:54:07;;;;;;;14.02;10.80;;;1.40;99.90;;;;;;5064324;28;20107;-36
2023/12/07 00:56:33;;;;;;;13.07;9.55;;;1.30;99.90;;;;;;5064593;28;20379;-36
2023/12/07 00:58:58;;;;;;;11.98;9.50;;;1.30;99.90;;;;;;5062757;28;20025;-38
2023/12/07 01:01:27;;;;;;;13.98;10.55;;;1.30;99.90;;;;;;5064258;28;20487;-36
2023/12/07 01:03:53;;;;;;;13.52;9.55;;;1.30;99.90;;;;;;5063252;28;20032;-40
2023/12/07 01:06:19;;;;;;;13.68;9.98;;;1.30;99.90;;;;;;5062981;28;20028;-46
2023/12/07 01:08:44;;;;;;;13.85;10.82;;;1.30;99.90;;;;;;5063148;28;20357;-37
2023/12/07 01:11:10;;;;;;;13.50;9.95;;;1.30;99.90;;;;;;5063076;28;20388;-37
2023/12/07 01:13:36;;;;;;;12.32;10.20;;;1.30;99.90;;;;;;5062491;28;20192;-37
2023/12/07 01:16:01;;;;;;;14.90;10.32;;;1.30;99.90;;;;;;5063667;28;20028;-36
2023/12/07 01:18:27;;;;;;;12.10;9.32;;;1.30;99.90;;;;;;5064089;28;20127;-36
2023/12/07 01:20:52;;;;;;;12.85;9.23;;;1.30;99.90;;;;;;5061769;28;20052;-37
2023/12/07 01:23:18;;;;;;;12.63;9.65;;;1.20;99.90;;;;;;5064030;28;20024;-37
2023/12/07 01:25:44;;;;;;;13.27;9.90;;;1.20;99.90;;;;;;5063042;28;20038;-38
2023/12/07 01:28:09;;;;;;;13.63;9.82;;;1.20;99.90;;;;;;5063388;28;20052;-37
2023/12/07 01:30:36;;;;;;;16.73;10.35;;;1.20;99.90;;;;;;5063662;28;20467;-36
2023/12/07 01:33:01;;;;;;;12.52;9.77;;;1.20;99.90;;;;;;5063120;28;20040;-36
2023/12/07 01:35:28;;;;;;;12.10;9.65;;;1.20;99.90;;;;;;5062970;28;20028;-38
2023/12/07 01:37:54;;;;;;;12.00;9.15;;;1.20;99.90;;;;;;5061657;28;20020;-37
2023/12/07 01:40:22;;;;;;;13.73;9.52;;;1.20;99.90;;;;;;5062911;28;20384;-37
2023/12/07 01:42:52;;;;;;;13.63;8.95;;;1.20;99.90;;;;;;5062132;28;20028;-36
2023/12/07 01:45:18;;;;;;;13.13;9.43;;;1.10;99.90;;;;;;5062924;28;20043;-36
2023/12/07 01:47:44;;;;;;;15.48;9.20;;;1.10;99.90;;;;;;5061751;28;20021;-36
2023/12/07 01:50:10;;;;;;;12.65;9.02;;;1.10;99.90;;;;;;5061653;28;20908;-37
2023/12/07 01:52:39;;;;;;;11.45;8.48;;;1.10;99.90;;;;;;5062573;28;20058;-36
2023/12/07 01:55:07;;;;;;;11.48;9.02;;;1.10;99.90;;;;;;5061562;28;20028;-36
2023/12/07 01:57:33;;;;;;;10.77;8.27;;;1.10;99.90;;;;;;5063015;28;20031;-38
2023/12/07 01:59:59;;;;;;;12.45;9.13;;;1.10;99.90;;;;;;5062491;28;20040;-37
2023/12/07 02:02:24;;;;;;;11.68;8.40;;;1.00;99.90;;;;;;5061201;28;20492;-36
2023/12/07 02:04:50;;;;;;;10.63;8.15;;;1.10;99.90;;;;;;5061826;28;20144;-37
2023/12/07 02:07:17;;;;;;;12.27;8.80;;;1.10;99.90;;;;;;5062251;28;20028;-37
2023/12/07 02:09:43;;;;;;;19.48;8.98;;;1.10;99.90;;;;;;5061410;28;20090;-38
2023/12/07 02:12:09;;;;;;;16.75;8.93;;;1.20;99.90;;;;;;5061521;28;20040;-38
2023/12/07 02:14:34;;;;;;;20.75;9.40;;;1.20;99.90;;;;;;5061763;28;20035;-36
2023/12/07 02:17:21;;;;;;;14.88;9.77;;;1.20;99.90;;;;;;5060864;28;20032;-37
2023/12/07 02:20:12;;;;;;;14.63;9.20;;;1.20;99.90;;;;;;5061730;28;20511;-37
2023/12/07 02:22:43;;;;;;;20.13;9.85;;;1.20;99.90;;;;;;5061233;28;20162;-37
2023/12/07 02:25:14;;;;;;;11.30;7.80;;;1.20;99.90;;;;;;5061784;28;20861;-37
2023/12/07 02:27:41;;;;;;;20.67;9.40;;;1.30;99.90;;;;;;5062148;28;20034;-37
2023/12/07 02:30:09;;;;;;;14.13;8.00;;;1.30;99.90;;;;;;5059980;28;20766;-36
2023/12/07 02:32:40;;;;;;;13.77;8.18;;;1.40;99.90;;;;;;5062497;28;20047;-37
2023/12/07 02:35:07;;;;;;;25.42;8.77;;;1.30;99.90;;;;;;5062915;28;20062;-36
2023/12/07 02:37:47;;;;;;;14.70;8.18;;;1.40;99.90;;;;;;5061153;28;20042;-36
2023/12/07 02:40:17;;;;;;;15.88;9.30;;;1.40;99.90;;;;;;5061345;28;20034;-36
2023/12/07 02:42:46;;;;;;;16.25;9.50;;;1.40;99.90;;;;;;5060939;28;20032;-36
2023/12/07 02:45:12;;;;;;;14.25;8.75;;;1.50;99.90;;;;;;5060880;28;20040;-37
2023/12/07 02:47:39;;;;;;;12.18;8.43;;;1.50;99.90;;;;;;5062057;28;20090;-37
2023/12/07 02:50:08;;;;;;;12.90;7.85;;;1.50;99.90;;;;;;5060293;28;20048;-36
2023/12/07 02:52:34;;;;;;;14.38;8.02;;;1.50;99.90;;;;;;5061122;28;20443;-36
2023/12/07 02:55:00;;;;;;;17.25;8.32;;;1.50;99.90;;;;;;5060919;28;20031;-36
2023/12/07 02:57:25;;;;;;;15.82;7.70;;;1.50;99.90;;;;;;5061154;28;20024;-35
2023/12/07 02:59:51;;;;;;;16.35;8.38;;;1.50;99.90;;;;;;5060517;28;20020;-37
2023/12/07 03:02:17;;;;;;;16.33;8.73;;;1.50;99.90;;;;;;5060687;28;20114;-36
2023/12/07 03:04:42;;;;;;;19.17;8.57;;;1.50;99.90;;;;;;5060806;28;20040;-37
2023/12/07 03:07:10;;;;;;;17.05;7.40;;;1.50;99.90;;;;;;5060737;28;20367;-36
2023/12/07 03:09:35;;;;;;;12.75;7.20;;;1.50;99.90;;;;;;5060693;28;20020;-36
2023/12/07 03:12:01;;;;;;;12.23;7.35;;;1.50;99.90;;;;;;5060584;28;20036;-36
2023/12/07 03:14:27;;;;;;;16.15;6.68;;;1.50;99.90;;;;;;5060982;28;20028;-37
2023/12/07 03:16:52;;;;;;;16.30;7.13;;;1.50;99.90;;;;;;5061080;28;20773;-36
2023/12/07 03:19:18;;;;;;;10.02;6.28;;;1.50;99.90;;;;;;5061031;28;20024;-36
2023/12/07 03:21:43;;;;;;;10.52;5.80;;;1.50;99.90;;;;;;5060618;28;20025;-38
2023/12/07 03:24:10;;;;;;;10.40;6.40;;;1.50;99.90;;;;;;5063078;28;20537;-37
2023/12/07 03:26:36;;;;;;;18.38;6.22;;;1.50;99.90;;;;;;5059602;28;20033;-37
2023/12/07 03:29:02;;;;;;;14.73;6.55;;;1.50;99.90;;;;;;5059661;28;20028;-37
2023/12/07 03:31:28;;;;;;;15.13;6.70;;;1.60;99.90;;;;;;5061181;28;20102;-37
2023/12/07 03:33:55;;;;;;;8.20;6.10;;;1.60;99.90;;;;;;5060185;28;20028;-37
2023/12/07 03:36:20;;;;;;;8.95;7.05;;;1.60;99.90;;;;;;5060796;28;20749;-37
2023/12/07 03:38:46;;;;;;;8.18;6.88;;;1.70;99.90;;;;;;5060473;28;20320;-37
2023/12/07 03:41:12;;;;;;;9.80;7.20;;;1.70;99.90;;;;;;5049111;28;20775;-36
2023/12/07 03:43:37;;;;;;;9.18;7.50;;;1.80;99.90;;;;;;5060607;28;20037;-36
2023/12/07 03:46:07;;;;;;;9.80;7.40;;;1.80;99.90;;;;;;5060633;28;20038;-37
2023/12/07 03:48:33;;;;;;;7.85;6.68;;;1.80;99.90;;;;;;5060486;28;20031;-37
2023/12/07 03:51:00;;;;;;;8.23;6.53;;;1.90;99.90;;;;;;5061758;28;20149;-37
2023/12/07 03:53:25;;;;;;;11.88;6.88;;;1.90;99.90;;;;;;5060625;28;20024;-37
2023/12/07 03:55:52;;;;;;;9.00;7.60;;;1.80;99.90;;;;;;5058810;28;20043;-37
2023/12/07 03:58:17;;;;;;;9.02;7.40;;;1.90;99.90;;;;;;5060403;28;20025;-36
2023/12/07 04:00:44;;;;;;;9.27;7.80;;;1.90;99.90;;;;;;5060261;28;20554;-37
2023/12/07 04:03:10;;;;;;;9.80;7.75;;;1.90;99.90;;;;;;5059188;28;20546;-51
2023/12/07 04:05:36;;;;;;;11.07;8.10;;;1.90;99.90;;;;;;5059916;28;20040;-36
2023/12/07 04:08:01;;;;;;;9.88;7.57;;;1.90;99.90;;;;;;5060447;28;20036;-38
2023/12/07 04:10:27;;;;;;;11.73;8.27;;;1.90;99.90;;;;;;5059865;28;20114;-37
2023/12/07 04:12:55;;;;;;;10.52;7.82;;;1.90;99.90;;;;;;5060237;28;20032;-37
2023/12/07 04:15:21;;;;;;;9.73;7.53;;;1.90;99.90;;;;;;5059863;28;20121;-37
2023/12/07 04:17:47;;;;;;;9.13;7.45;;;1.80;99.90;;;;;;5060075;28;20460;-37
2023/12/07 04:20:15;;;;;;;9.27;7.63;;;1.80;99.90;;;;;;5059779;28;20036;-37
2023/12/07 04:22:41;;;;;;;8.60;7.53;;;1.80;99.90;;;;;;5060054;28;20466;-37
2023/12/07 04:25:07;;;;;;;10.13;7.57;;;1.80;99.90;;;;;;5060183;28;20103;-37
2023/12/07 04:27:35;;;;;;;11.73;9.13;;;1.70;99.90;;;;;;5059693;28;20035;-36
2023/12/07 04:30:01;;;;;;;12.35;9.38;;;1.70;99.90;;;;;;5059662;28;20475;-37
2023/12/07 04:32:27;;;;;;;14.27;10.25;;;1.70;99.90;;;;;;5060048;28;20044;-37
2023/12/07 04:34:53;;;;;;;15.93;9.32;;;1.80;99.90;;;;;;5059834;28;20363;-37
2023/12/07 04:37:19;;;;;;;18.42;9.55;;;1.80;99.90;;;;;;5059747;28;20079;-37
2023/12/07 04:39:44;;;;;;;17.60;9.55;;;1.80;99.90;;;;;;5059393;28;20032;-38
2023/12/07 04:42:10;;;;;;;12.90;9.68;;;1.80;99.90;;;;;;5059660;28;20029;-37
2023/12/07 04:44:35;;;;;;;26.73;9.63;;;1.90;99.90;;;;;;5059784;28;20017;-40
2023/12/07 04:47:01;;;;;;;14.45;9.23;;;1.90;99.90;;;;;;5059695;28;20028;-38
2023/12/07 04:49:32;;;;;;;28.27;9.98;;;2.00;99.90;;;;;;5061314;28;20056;-37
2023/12/07 04:51:58;;;;;;;23.67;9.10;;;2.00;99.90;;;;;;5058846;28;20131;-37
2023/12/07 04:54:24;;;;;;;29.70;9.85;;;2.00;99.90;;;;;;5060123;28;20058;-37
2023/12/07 04:56:49;;;;;;;25.48;9.50;;;2.00;99.90;;;;;;5060177;28;20032;-37
2023/12/07 04:59:15;;;;;;;19.40;8.75;;;2.00;99.90;;;;;;5059483;28;20036;-37
2023/12/07 05:01:40;;;;;;;21.20;9.15;;;2.00;99.90;;;;;;5059954;28;20102;-37
2023/12/07 05:04:12;;;;;;;34.13;9.02;;;2.00;99.90;;;;;;5059530;28;20764;-37
2023/12/07 05:06:38;;;;;;;13.32;9.45;;;2.00;99.90;;;;;;5059896;28;20025;-38
2023/12/07 05:09:03;;;;;;;30.63;8.85;;;2.00;99.90;;;;;;5059289;28;20024;-35
2023/12/07 05:11:29;;;;;;;25.05;9.32;;;2.00;99.90;;;;;;5059561;28;20128;-37
2023/12/07 05:13:55;;;;;;;33.92;9.38;;;2.00;99.90;;;;;;5061463;28;20023;-37
2023/12/07 05:16:21;;;;;;;22.90;9.00;;;2.00;99.90;;;;;;5064180;28;20021;-38
2023/12/07 05:18:46;;;;;;;24.83;8.38;;;2.00;99.90;;;;;;5063338;28;20051;-36
2023/12/07 05:21:12;;;;;;;40.50;8.55;;;2.00;99.90;;;;;;5063837;28;20055;-37
2023/12/07 05:23:37;;;;;;;37.67;9.30;;;2.00;99.90;;;;;;5063559;28;20049;-38
2023/12/07 05:26:04;;;;;;;23.35;8.23;;;2.00;99.90;;;;;;5063130;28;20039;-37
2023/12/07 05:28:29;;;;;;;35.33;8.82;;;2.00;99.90;;;;;;5063667;28;20041;-37
2023/12/07 05:30:57;;;;;;;28.63;8.02;;;1.90;99.90;;;;;;5063403;28;20040;-36
2023/12/07 05:33:22;;;;;;;29.40;9.05;;;1.90;99.90;;;;;;5063217;28;20064;-40
2023/12/07 05:35:51;;;;;;;15.60;9.20;;;1.90;99.90;;;;;;5063599;28;20067;-37
2023/12/07 05:38:16;;;;;;;20.88;9.00;;;1.90;99.90;;;;;;5062595;28;20501;-37
2023/12/07 05:40:42;;;;;;;29.80;8.63;;;1.90;99.90;;;;;;5061743;28;20070;-39
2023/12/07 05:43:08;;;;;;;11.00;7.80;;;1.90;99.90;;;;;;5062891;28;20152;-36
2023/12/07 05:45:34;;;;;;;35.67;9.02;;;1.80;99.90;;;;;;5063798;28;20370;-35
2023/12/07 05:48:00;;;;;;;19.48;7.82;;;1.80;99.90;;;;;;5061830;28;20432;-37
2023/12/07 05:50:25;;;;;;;11.60;8.43;;;1.70;99.90;;;;;;5062028;28;20777;-37
2023/12/07 05:52:51;;;;;;;26.55;7.88;;;1.70;99.90;;;;;;5062077;28;20020;-37
2023/12/07 05:55:16;;;;;;;23.67;7.28;;;1.70;99.90;;;;;;5062663;28;20028;-37
2023/12/07 05:57:45;;;;;;;29.00;7.13;;;1.70;99.90;;;;;;5062354;28;20048;-37
2023/12/07 06:00:11;;;;;;;15.00;7.30;;;1.60;99.90;;;;;;5062203;28;20021;-37
2023/12/07 06:02:37;;;;;;;41.15;8.63;;;1.50;99.90;;;;;;5062518;28;20078;-37
2023/12/07 06:05:06;;;;;;;17.60;8.20;;;1.50;99.90;;;;;;5061559;28;20024;-37
2023/12/07 06:07:34;;;;;;;22.85;7.32;;;1.50;99.90;;;;;;5063137;28;20059;-37
2023/12/07 06:10:00;;;;;;;25.23;8.32;;;1.50;99.90;;;;;;5061406;28;20503;-37
2023/12/07 06:12:25;;;;;;;15.70;8.60;;;1.50;99.90;;;;;;5070930;28;20478;-37
2023/12/07 06:14:51;;;;;;;19.42;8.15;;;1.50;99.90;;;;;;5068342;28;20028;-37
2023/12/07 06:17:16;;;;;;;19.77;7.00;;;1.50;99.90;;;;;;5062440;28;20036;-37
2023/12/07 06:19:42;;;;;;;16.33;7.15;;;1.60;99.90;;;;;;5062602;28;20577;-36
2023/12/07 06:22:08;;;;;;;20.25;9.10;;;1.50;99.90;;;;;;5061219;28;20596;-38
2023/12/07 06:24:33;;;;;;;26.30;8.43;;;1.50;99.90;;;;;;5062893;28;20021;-38
2023/12/07 06:27:01;;;;;;;16.83;7.38;;;1.50;99.90;;;;;;5061402;28;20028;-38
2023/12/07 06:29:27;;;;;;;20.80;8.68;;;1.50;99.90;;;;;;5059809;28;20107;-38
2023/12/07 06:31:53;;;;;;;12.52;8.50;;;1.40;99.90;;;;;;5049612;28;20089;-37
2023/12/07 06:34:19;;;;;;;13.98;8.50;;;1.50;99.90;;;;;;5060752;28;20031;-36
2023/12/07 06:36:45;;;;;;;21.75;8.68;;;1.50;99.90;;;;;;5060654;28;20077;-37
2023/12/07 06:39:10;;;;;;;27.52;8.77;;;1.50;99.90;;;;;;5061339;28;20792;-37
2023/12/07 06:41:36;;;;;;;26.02;7.95;;;1.50;99.90;;;;;;5061719;28;20044;-41
2023/12/07 06:44:02;;;;;;;17.17;8.90;;;1.50;99.90;;;;;;5060107;28;20028;-37
2023/12/07 06:46:27;;;;;;;23.80;9.13;;;1.50;99.90;;;;;;5060932;28;20101;-37
2023/12/07 06:48:53;;;;;;;23.63;9.50;;;1.50;99.90;;;;;;5060959;28;20361;-36
2023/12/07 06:51:19;;;;;;;24.00;8.88;;;1.50;99.90;;;;;;5060817;28;20503;-48
2023/12/07 06:53:44;;;;;;;33.78;9.43;;;1.50;99.90;;;;;;5061043;28;20029;-42
2023/12/07 06:56:11;;;;;;;23.55;9.73;;;1.50;99.90;;;;;;5061411;28;20020;-37
2023/12/07 06:58:37;;;;;;;15.05;9.70;;;1.50;99.90;;;;;;5060935;28;20091;-37
2023/12/07 07:01:02;;;;;;;29.00;9.45;;;1.50;99.90;;;;;;5060169;28;20024;-37
2023/12/07 07:03:28;;;;;;;47.50;9.95;;;1.50;99.90;;;;;;5061305;28;20482;-37
2023/12/07 07:05:54;;;;;;;19.35;9.30;;;1.50;99.90;;;;;;5059339;28;20028;-37
2023/12/07 07:08:20;;;;;;;22.65;7.60;;;1.50;99.90;;;;;;5060874;28;20028;-37
2023/12/07 07:10:49;;;;;;;23.42;8.38;;;1.50;99.90;;;;;;5060442;28;20032;-37
2023/12/07 07:13:48;;;;;;;27.85;8.32;;;1.50;99.90;;;;;;5059607;28;20021;-36
2023/12/07 07:16:08;;;;;;;18.08;7.20;;;1.50;99.90;;;;;;5059918;28;20028;-38
2023/12/07 07:18:34;;;;;;;18.38;7.80;;;1.40;99.90;;;;;;5059903;28;20029;-37
2023/12/07 07:21:00;;;;;;;21.17;8.23;;;1.40;99.90;;;;;;5059691;28;20031;-37
2023/12/07 07:23:32;;;;;;;12.65;7.45;;;1.40;99.90;;;;;;5059933;28;20024;-37
2023/12/07 07:25:57;;;;;;;10.67;8.23;;;1.40;99.90;;;;;;5059006;28;20028;-36
2023/12/07 07:28:23;;;;;;;14.43;7.47;;;1.40;99.90;;;;;;5060216;28;20040;-37
2023/12/07 07:30:49;;;;;;;16.80;8.57;;;1.30;99.90;;;;;;5059740;28;20882;-39
2023/12/07 07:33:14;;;;;;;17.35;7.78;;;1.30;99.90;;;;;;5060242;28;20031;-37
2023/12/07 07:35:40;;;;;;;14.88;8.50;;;1.30;99.90;;;;;;5060448;28;20062;-37
2023/12/07 07:38:05;;;;;;;13.63;8.38;;;1.30;99.90;;;;;;5059705;28;20426;-36
2023/12/07 07:40:31;;;;;;;23.13;9.13;;;1.30;99.90;;;;;;5060257;28;20024;-37
2023/12/07 07:42:56;;;;;;;25.05;8.40;;;1.30;99.90;;;;;;5060405;28;20040;-37
2023/12/07 07:45:22;;;;;;;16.73;8.93;;;1.30;99.90;;;;;;5061391;28;20395;-37
2023/12/07 07:47:47;;;;;;;25.33;8.82;;;1.30;99.90;;;;;;5059779;28;20016;-36
2023/12/07 07:50:13;;;;;;;19.10;9.90;;;1.30;99.90;;;;;;5060010;28;20048;-36
2023/12/07 07:52:40;;;;;;;20.10;10.73;;;1.40;99.90;;;;;;5059621;28;20042;-40
2023/12/07 07:55:07;;;;;;;16.10;9.35;;;1.40;99.90;;;;;;5059155;28;20039;-37
2023/12/07 07:57:32;;;;;;;28.95;9.55;;;1.40;99.90;;;;;;5060929;28;20024;-38
2023/12/07 07:59:58;;;;;;;19.45;9.27;;;1.40;99.90;;;;;;5060120;28;20035;-37
2023/12/07 08:02:24;;;;;;;22.02;9.07;;;1.40;99.90;;;;;;5059557;28;20025;-37
2023/12/07 08:04:51;;;;;;;23.08;8.45;;;1.40;99.90;;;;;;5059898;28;20116;-37
2023/12/07 08:07:17;;;;;;;18.13;8.82;;;1.50;99.90;;;;;;5059173;28;20038;-38
2023/12/07 08:09:43;;;;;;;23.27;9.68;;;1.50;99.90;;;;;;5055755;28;20024;-37
2023/12/07 08:12:08;;;;;;;20.52;8.77;;;1.50;99.90;;;;;;5060850;28;20028;-44
2023/12/07 08:14:37;;;;;;;28.20;9.68;;;1.50;99.90;;;;;;5058924;28;20016;-36
2023/12/07 08:17:03;;;;;;;28.58;9.35;;;1.40;99.90;;;;;;5059865;28;20874;-37
2023/12/07 08:19:29;;;;;;;16.98;9.23;;;1.40;99.90;;;;;;5060519;28;20047;-37
2023/12/07 08:21:55;;;;;;;14.93;8.75;;;1.50;99.90;;;;;;5059222;28;20384;-37
2023/12/07 08:24:21;;;;;;;18.15;8.68;;;1.50;99.90;;;;;;5060015;28;20027;-38
2023/12/07 08:26:46;;;;;;;15.05;8.52;;;1.50;99.90;;;;;;5060330;28;20111;-38
2023/12/07 08:29:13;;;;;;;30.10;9.43;;;1.50;99.90;;;;;;5059071;28;20013;-37
2023/12/07 08:31:40;;;;;;;37.90;11.10;;;1.50;99.90;;;;;;5060227;28;20083;-37
2023/12/07 08:34:06;;;;;;;25.17;10.20;;;1.50;99.90;;;;;;5060117;28;20970;-38
2023/12/07 08:36:31;;;;;;;12.30;8.48;;;1.50;99.90;;;;;;5059117;28;20024;-37
2023/12/07 08:38:57;;;;;;;12.57;7.78;;;1.50;99.90;;;;;;5058696;28;20044;-37
2023/12/07 08:41:23;;;;;;;19.13;9.55;;;1.50;99.90;;;;;;5059896;28;20056;-36
2023/12/07 08:43:48;;;;;;;25.20;9.52;;;1.50;99.90;;;;;;5058820;28;20017;-37
2023/12/07 08:46:14;;;;;;;19.02;9.65;;;1.50;99.90;;;;;;5059565;28;20032;-37
2023/12/07 08:48:40;;;;;;;17.05;9.93;;;1.50;99.90;;;;;;5060666;28;20029;-37
2023/12/07 08:51:07;;;;;;;13.95;9.50;;;1.50;99.90;;;;;;5063856;28;20074;-37
2023/12/07 08:53:33;;;;;;;13.93;10.23;;;1.50;99.90;;;;;;5064388;28;20036;-37
2023/12/07 08:56:00;;;;;;;19.52;11.25;;;1.50;99.90;;;;;;5062273;28;20028;-37
2023/12/07 08:58:26;;;;;;;16.02;11.60;;;1.60;99.90;;;;;;5062957;28;20033;-37
2023/12/07 09:00:52;;;;;;;27.27;11.02;;;1.60;99.90;;;;;;5062098;28;20032;-37
2023/12/07 09:03:17;;;;;;;26.27;11.63;;;1.70;99.90;;;;;;5063391;28;20039;-37
2023/12/07 09:05:43;;;;;;;17.95;10.70;;;1.70;99.90;;;;;;5062392;28;20038;-36
2023/12/07 09:08:09;;;;;;;16.30;10.30;;;1.70;99.90;;;;;;5063124;28;20453;-36
2023/12/07 09:10:35;;;;;;;24.27;10.00;;;1.70;99.90;;;;;;5062265;28;20044;-37
2023/12/07 09:13:01;;;;;;;14.40;10.98;;;1.70;99.90;;;;;;5063171;28;20093;-38
2023/12/07 09:15:26;;;;;;;21.30;10.43;;;1.70;99.90;;;;;;5063603;28;20071;-37
2023/12/07 09:17:52;;;;;;;20.35;10.60;;;1.70;99.90;;;;;;5062599;28;20020;-36
2023/12/07 09:20:18;;;;;;;31.27;10.07;;;1.70;99.90;;;;;;5062829;28;20025;-37
2023/12/07 09:22:44;;;;;;;20.55;9.48;;;1.70;99.90;;;;;;5062729;28;20143;-37
2023/12/07 09:25:11;;;;;;;24.40;9.60;;;1.70;99.90;;;;;;5062270;28;20025;-37
2023/12/07 09:27:38;;;;;;;18.00;9.13;;;1.70;99.90;;;;;;5062856;28;20354;-36
2023/12/07 09:30:11;;;;;;;13.88;8.77;;;1.70;99.90;;;;;;5062183;28;20540;-36
2023/12/07 09:32:39;;;;;;;11.38;6.82;;;1.70;99.90;;;;;;5060915;28;20041;-37
2023/12/07 09:35:06;;;;;;;15.20;7.53;;;1.70;99.90;;;;;;5062714;28;20024;-37
2023/12/07 09:37:33;;;;;;;12.48;7.95;;;1.80;99.90;;;;;;5062014;28;20723;-37
2023/12/07 09:39:59;;;;;;;15.75;7.22;;;1.80;99.90;;;;;;5061469;28;20028;-36
2023/12/07 09:42:24;;;;;;;16.85;7.18;;;1.80;99.90;;;;;;5062744;28;20102;-37
2023/12/07 09:44:50;;;;;;;14.80;8.00;;;1.80;99.90;;;;;;5062153;28;20032;-37
2023/12/07 09:47:16;;;;;;;18.67;8.43;;;1.80;99.90;;;;;;5061977;28;20028;-38
2023/12/07 09:49:42;;;;;;;10.15;7.43;;;1.80;99.90;;;;;;5061919;28;20052;-37
2023/12/07 09:52:10;;;;;;;13.15;7.85;;;1.80;99.90;;;;;;5062263;28;20047;-36
2023/12/07 09:54:39;;;;;;;11.50;7.55;;;1.80;99.90;;;;;;5061859;28;20150;-37
2023/12/07 09:57:05;;;;;;;9.98;7.22;;;1.80;99.90;;;;;;5061309;28;20071;-38
2023/12/07 09:59:31;;;;;;;10.43;7.47;;;1.80;99.90;;;;;;5061691;28;20115;-38
2023/12/07 10:01:56;;;;;;;12.45;7.85;;;1.90;99.90;;;;;;5061159;28;20181;-37
2023/12/07 10:04:25;;;;;;;11.45;8.40;;;1.90;99.90;;;;;;5062862;28;20051;-39
2023/12/07 10:06:52;;;;;;;9.55;7.53;;;1.90;99.90;;;;;;5061296;28;20475;-40
2023/12/07 10:09:21;;;;;;;11.10;7.75;;;1.80;99.90;;;;;;5062796;28;20106;-38
2023/12/07 10:11:47;;;;;;;9.48;7.07;;;1.80;99.90;;;;;;5062284;28;20898;-38
2023/12/07 10:14:13;;;;;;;10.77;7.55;;;1.80;99.90;;;;;;5061922;28;20459;-39
2023/12/07 10:16:52;;;;;;;9.15;6.85;;;1.80;99.90;;;;;;5062301;28;20024;-38
2023/12/07 10:19:21;;;;;;;8.57;6.25;;;1.90;99.90;;;;;;5062843;28;20031;-37
2023/12/07 10:21:51;;;;;;;9.57;6.60;;;1.90;99.90;;;;;;5060679;28;20114;-40
2023/12/07 10:24:19;;;;;;;9.45;6.10;;;1.90;99.90;;;;;;5062114;28;20020;-39
2023/12/07 10:26:45;;;;;;;8.75;6.20;;;1.90;99.90;;;;;;5062838;28;20035;-40
2023/12/07 10:29:12;;;;;;;7.78;5.80;;;1.90;99.90;;;;;;5061322;28;20633;-38
2023/12/07 10:31:38;;;;;;;8.93;6.32;;;2.00;99.90;;;;;;5061784;28;20037;-38
2023/12/07 10:34:05;;;;;;;9.48;6.50;;;2.00;99.90;;;;;;5061354;28;20490;-38
2023/12/07 10:36:32;;;;;;;11.65;6.65;;;2.10;99.90;;;;;;5061611;28;20028;-37
2023/12/07 10:38:58;;;;;;;11.43;6.40;;;2.10;99.90;;;;;;5061076;28;20112;-37
2023/12/07 10:41:24;;;;;;;10.63;6.60;;;2.10;99.90;;;;;;5062020;28;20135;-37
2023/12/07 10:43:59;;;;;;;9.50;6.32;;;2.20;99.90;;;;;;5060158;28;20060;-38
2023/12/07 10:46:25;;;;;;;10.35;6.95;;;2.20;99.90;;;;;;5061555;28;20035;-37
2023/12/07 10:49:04;;;;;;;8.75;6.10;;;2.20;99.90;;;;;;5060902;28;20096;-37
2023/12/07 10:51:41;;;;;;;11.15;6.32;;;2.20;99.90;;;;;;5061207;28;20766;-37
2023/12/07 10:54:16;;;;;;;11.55;6.60;;;2.30;99.90;;;;;;5060616;28;20090;-37
2023/12/07 10:56:46;;;;;;;10.65;7.00;;;2.30;99.90;;;;;;5060961;28;20095;-37
2023/12/07 10:59:13;;;;;;;10.48;6.82;;;2.30;99.90;;;;;;5060525;28;20024;-36
2023/12/07 11:01:40;;;;;;;12.05;7.22;;;2.30;99.90;;;;;;5061839;28;20085;-37
2023/12/07 11:04:06;;;;;;;11.48;7.07;;;2.30;99.90;;;;;;5060177;28;20028;-36
2023/12/07 11:06:33;;;;;;;11.68;6.85;;;2.40;99.90;;;;;;5061314;28;20025;-35
2023/12/07 11:09:02;;;;;;;11.60;7.05;;;2.40;99.90;;;;;;5060975;28;20102;-37
2023/12/07 11:11:42;;;;;;;14.63;7.85;;;2.40;99.90;;;;;;5059437;28;20036;-36
2023/12/07 11:14:13;;;;;;;12.60;7.55;;;2.40;99.90;;;;;;5060976;28;20375;-36
2023/12/07 11:16:43;;;;;;;14.35;8.07;;;2.40;99.90;;;;;;5061611;28;20140;-36
2023/12/07 11:19:44;;;;;;;13.13;7.75;;;2.40;99.90;;;;;;5060621;28;20040;-36
2023/12/07 11:22:14;;;;;;;14.57;8.07;;;2.50;99.90;;;;;;5060676;28;20035;-37
2023/12/07 11:24:58;;;;;;;15.15;8.43;;;2.50;99.90;;;;;;5059725;28;20533;-37
2023/12/07 11:27:24;;;;;;;15.25;8.82;;;2.60;99.90;;;;;;5061371;28;20035;-37
2023/12/07 11:29:51;;;;;;;17.38;9.13;;;2.60;99.90;;;;;;5060233;28;20025;-37
2023/12/07 11:32:16;;;;;;;13.73;8.68;;;2.70;99.90;;;;;;5059848;28;20028;-37
2023/12/07 11:34:43;;;;;;;16.33;8.90;;;2.70;99.90;;;;;;5060174;28;20028;-37
2023/12/07 11:37:12;;;;;;;16.95;8.63;;;2.80;99.90;;;;;;5057568;28;20040;-37
2023/12/07 11:39:45;;;;;;;15.68;9.40;;;2.90;99.90;;;;;;5059888;28;20643;-37
2023/12/07 11:42:12;;;;;;;;;;;2.90;99.90;;;;;;5061569;28;20034;-36
2023/12/07 11:44:39;;;;;;;18.30;9.38;;;2.90;99.90;;;;;;5060962;28;19912;-36
2023/12/07 11:47:05;;;;;;;16.70;9.63;;;2.90;99.90;;;;;;5059898;28;20035;-38
2023/12/07 11:49:31;;;;;;;21.08;10.27;;;3.00;99.90;;;;;;5061136;28;20076;-38
2023/12/07 11:52:11;;;;;;;17.80;10.05;;;3.00;99.90;;;;;;5060234;28;20170;-36
2023/12/07 11:54:37;;;;;;;17.48;11.02;;;3.10;99.90;;;;;;5060331;28;20457;-37
2023/12/07 11:57:03;;;;;;;16.08;9.13;;;3.10;99.90;;;;;;5060141;28;20455;-37
2023/12/07 11:59:29;;;;;;;17.40;9.70;;;3.20;99.90;;;;;;5060689;28;20050;-38
2023/12/07 12:01:55;;;;;;;20.48;11.10;;;3.20;99.90;;;;;;5060126;28;20024;-36
2023/12/07 12:04:24;;;;;;;17.08;9.75;;;3.30;99.90;;;;;;5061553;28;20384;-37
2023/12/07 12:06:50;;;;;;;17.88;10.85;;;3.30;99.90;;;;;;5059863;28;20077;-37
2023/12/07 12:09:18;;;;;;;17.42;10.27;;;3.30;99.90;;;;;;5060643;28;20048;-37
2023/12/07 12:11:46;;;;;;;18.63;11.07;;;3.40;99.90;;;;;;5059227;28;20064;-37
2023/12/07 12:14:16;;;;;;;17.63;10.77;;;3.40;99.90;;;;;;5059339;28;20024;-38
2023/12/07 12:16:43;;;;;;;15.40;9.65;;;3.40;99.90;;;;;;5060100;28;20380;-37
2023/12/07 12:19:09;;;;;;;17.83;10.70;;;3.40;99.90;;;;;;5059806;28;20033;-38
2023/12/07 12:21:40;;;;;;;19.92;11.68;;;3.40;99.90;;;;;;5059861;28;20119;-37
2023/12/07 12:24:07;;;;;;;20.10;11.13;;;3.50;99.90;;;;;;5064030;28;20407;-39
2023/12/07 12:26:38;;;;;;;19.98;11.70;;;3.50;99.90;;;;;;5064824;28;20024;-42
2023/12/07 12:29:05;;;;;;;21.70;12.63;;;3.50;99.90;;;;;;5064382;28;20038;-36
2023/12/07 12:31:32;;;;;;;18.17;11.32;;;3.50;99.90;;;;;;5065037;28;20040;-37
2023/12/07 12:33:57;;;;;;;18.85;11.95;;;3.60;99.90;;;;;;5064305;28;20070;-37
2023/12/07 12:36:26;;;;;;;20.08;11.63;;;3.60;99.90;;;;;;5063763;28;20447;-36
2023/12/07 12:38:53;;;;;;;19.80;12.52;;;3.60;99.90;;;;;;5064121;28;20024;-36
2023/12/07 12:41:30;;;;;;;22.27;11.90;;;3.60;99.90;;;;;;5064378;28;20056;-37
2023/12/07 12:43:56;;;;;;;21.08;12.02;;;3.60;99.90;;;;;;5063529;28;20016;-36